Terminal Aerodrome Forecast
Issued by NWS Mt. Holly, NJ

Home | Current Version | Previous Version | Text Only | Print | Product List | Glossary On
Versions: 1 2 3 4 5 6 7 8 9 10 11 12 13
692
FTUS41 KPHI 242338
TAFTTN
TAF
KTTN 242338Z 2500/2524 11010KT P6SM -RA BKN045 OVC060
      TEMPO 2500/2502 4SM RA
     FM250200 11010KT 4SM RA OVC035
     FM250700 11008KT 4SM RA OVC007
     FM251000 10011KT 6SM -RA OVC007
     FM251200 10010KT 6SM -RA OVC006
     FM251500 08009KT 3SM -DZ BR OVC003=

USA.gov is the U.S. government's official web portal to all federal, state and local government web resources and services.